Weather at The Ballpark in Arlington Heliport

Public forecast

Using degrees Fahrenheit for public forecast. Weather courtesy of forecast.io.

Closest aviation weather report (METAR) to The Ballpark in Arlington Heliport

Closest report is Grand Prairie Municipal Airport, 3.7 nm (6.8 km) SSE.

2024/05/22 04:15 (retrieved 6 minutes ago)

KGPM 220415Z AUTO 18004KT 7SM CLR 28/23 A2980 RMK AO2 T02750230

Closest aviation forecast (TAF) to The Ballpark in Arlington Heliport

Forecast is more than 6 hours old.

Closest forecast is NAS Fort Worth JRB / Carswell Field, 18.0 nm (33.4 km) W.

2024/05/21 21:24 Ammendment (retrieved 7 hours ago)

AMD KNFW 2121/2215 21018G25KT 9999 VCTS SCT035CB BKN250 QNH2970INS FM220000 17009KT 9999 SCT045 BKN080 BKN250 QNH2968INS BECMG 2203/2205 17012G18KT 9999 SCT018 BKN035 BKN200 QNH2972INS BECMG 2207/2209 19015G22KT 9999 BKN018 OVC025 QNH2974INS TX32/2121Z TN25/2210Z AMD 2105 FN20048